Time,TemperatureF,DewpointF,PressureIn,WindDirection,WindDirectionDegrees,WindSpeedMPH,WindSpeedGustMPH,Humidity,HourlyPrecipIn,Conditions,Clouds,dailyrainin,SoftwareType,DateUTC
2013-06-07 00:00:00,60.7,53.4,29.86,NNE,28,0.0,0.0,77,0.00,,BKN095,0.00,VWS V14.01,2013-06-07 04:00:00,
2013-06-07 00:01:00,60.7,53.4,29.86,NNE,28,2.4,3.5,77,0.00,,BKN095,0.00,VWS V14.01,2013-06-07 04:01:00,
2013-06-07 00:02:00,60.5,53.2,29.86,NNE,28,2.4,3.5,77,0.00,,BKN095,0.00,VWS V14.01,2013-06-07 04:02:00,
2013-06-07 00:07:00,60.4,53.1,29.86,NNE,28,0.0,0.0,77,0.00,,BKN095,0.00,VWS V14.01,2013-06-07 04:07:00,
2013-06-07 00:12:00,60.2,52.9,29.87,NNE,28,0.0,0.0,77,0.00,,BKN095,0.00,VWS V14.01,2013-06-07 04:12:00,
2013-06-07 00:17:00,60.1,52.8,29.87,NNE,28,0.0,0.0,77,0.00,,BKN095,0.00,VWS V14.01,2013-06-07 04:17:00,
2013-06-07 00:22:00,59.8,52.5,29.87,NNE,28,0.0,0.0,77,0.00,,BKN095,0.00,VWS V14.01,2013-06-07 04:22:00,
2013-06-07 00:27:00,59.6,52.7,29.87,NNE,28,0.0,0.0,78,0.00,,BKN095,0.00,VWS V14.01,2013-06-07 04:27:00,
2013-06-07 00:32:00,59.5,52.6,29.87,NNE,28,0.0,0.0,78,0.00,,BKN095,0.00,VWS V14.01,2013-06-07 04:32:00,
2013-06-07 00:37:00,59.3,52.4,29.87,NNE,28,0.0,0.0,78,0.00,,BKN095,0.00,VWS V14.01,2013-06-07 04:37:00,
2013-06-07 00:42:00,59.2,52.3,29.87,NNE,30,1.2,1.2,78,0.00,,BKN095,0.00,VWS V14.01,2013-06-07 04:42:00,
2013-06-07 00:47:00,59.0,52.1,29.87,NNE,30,0.0,0.0,78,0.00,,BKN095,0.00,VWS V14.01,2013-06-07 04:47:00,
2013-06-07 00:52:00,58.7,52.1,29.87,NNE,30,0.0,0.0,79,0.00,,CLR,0.00,VWS V14.01,2013-06-07 04:52:00,
2013-06-07 00:57:00,58.6,52.0,29.87,NNE,30,0.0,0.0,79,0.00,,CLR,0.00,VWS V14.01,2013-06-07 04:57:00,
2013-06-07 01:02:00,58.4,52.2,29.87,NNE,30,0.0,0.0,80,0.00,,CLR,0.00,VWS V14.01,2013-06-07 05:02:00,
2013-06-07 01:07:00,58.1,51.9,29.87,NNE,30,0.0,0.0,80,0.00,,CLR,0.00,VWS V14.01,2013-06-07 05:07:00,
2013-06-07 01:12:00,58.0,51.8,29.87,NNE,30,0.0,0.0,80,0.00,,CLR,0.00,VWS V14.01,2013-06-07 05:12:00,
2013-06-07 01:18:00,57.8,51.6,29.87,NNE,30,0.0,0.0,80,0.00,,CLR,0.00,VWS V14.01,2013-06-07 05:18:00,
2013-06-07 01:23:00,57.5,51.3,29.87,NNE,30,0.0,0.0,80,0.00,,CLR,0.00,VWS V14.01,2013-06-07 05:23:00,
2013-06-07 01:28:00,57.3,51.1,29.87,NNE,30,0.0,0.0,80,0.00,,CLR,0.00,VWS V14.01,2013-06-07 05:28:00,
2013-06-07 01:33:00,57.0,50.8,29.87,NNE,30,0.0,0.0,80,0.00,,CLR,0.00,VWS V14.01,2013-06-07 05:33:00,
2013-06-07 01:38:00,56.9,50.7,29.87,NNE,30,0.0,0.0,80,0.00,,CLR,0.00,VWS V14.01,2013-06-07 05:38:00,
2013-06-07 01:43:00,56.6,50.4,29.87,NNE,30,0.0,0.0,80,0.00,,CLR,0.00,VWS V14.01,2013-06-07 05:43:00,
2013-06-07 01:48:00,56.5,50.3,29.88,NNE,30,0.0,0.0,80,0.00,,CLR,0.00,VWS V14.01,2013-06-07 05:48:00,
2013-06-07 01:53:00,56.2,50.0,29.88,NNE,30,0.0,0.0,80,0.00,,CLR,0.00,VWS V14.01,2013-06-07 05:53:00,
2013-06-07 01:58:00,56.0,49.9,29.87,NNE,30,0.0,0.0,80,0.00,,CLR,0.00,VWS V14.01,2013-06-07 05:58:00,
2013-06-07 02:03:00,55.9,50.1,29.87,NE,39,0.0,0.0,81,0.00,,CLR,0.00,VWS V14.01,2013-06-07 06:03:00,
2013-06-07 02:08:00,55.7,49.9,29.88,NE,39,0.0,1.2,81,0.00,,CLR,0.00,VWS V14.01,2013-06-07 06:08:00,
2013-06-07 02:13:00,55.6,49.8,29.88,NE,39,0.0,0.0,81,0.00,,CLR,0.00,VWS V14.01,2013-06-07 06:13:00,
2013-06-07 02:18:00,55.4,49.6,29.88,NE,39,0.0,0.0,81,0.00,,CLR,0.00,VWS V14.01,2013-06-07 06:18:00,
2013-06-07 02:23:00,55.3,49.8,29.88,ENE,68,0.0,1.2,82,0.00,,CLR,0.00,VWS V14.01,2013-06-07 06:23:00,
2013-06-07 02:28:00,55.1,49.7,29.88,ENE,69,0.0,0.0,82,0.00,,CLR,0.00,VWS V14.01,2013-06-07 06:28:00,
2013-06-07 02:33:00,55.1,49.7,29.87,ENE,68,0.0,0.0,82,0.00,,CLR,0.00,VWS V14.01,2013-06-07 06:33:00,
2013-06-07 02:38:00,55.0,49.9,29.87,ENE,69,0.0,0.0,83,0.00,,CLR,0.00,VWS V14.01,2013-06-07 06:38:00,
2013-06-07 02:43:00,54.8,49.7,29.87,ENE,68,0.0,0.0,83,0.00,,CLR,0.00,VWS V14.01,2013-06-07 06:43:00,
2013-06-07 02:48:00,54.8,49.7,29.87,ENE,68,0.0,0.0,83,0.00,,CLR,0.00,VWS V14.01,2013-06-07 06:48:00,
2013-06-07 02:53:00,54.7,49.6,29.87,ENE,68,0.0,0.0,83,0.00,,CLR,0.00,VWS V14.01,2013-06-07 06:53:00,
2013-06-07 02:58:00,54.5,49.4,29.87,ENE,68,0.0,0.0,83,0.00,,CLR,0.00,VWS V14.01,2013-06-07 06:58:00,
2013-06-07 03:03:00,54.5,49.4,29.87,ENE,69,0.0,0.0,83,0.00,,CLR,0.00,VWS V14.01,2013-06-07 07:03:00,
2013-06-07 03:08:00,54.4,49.3,29.87,ENE,68,0.0,0.0,83,0.00,,CLR,0.00,VWS V14.01,2013-06-07 07:08:00,
2013-06-07 03:13:00,54.2,49.4,29.87,ENE,68,0.0,0.0,84,0.00,,CLR,0.00,VWS V14.01,2013-06-07 07:13:00,
2013-06-07 03:18:00,54.1,49.3,29.87,ENE,68,0.0,0.0,84,0.00,,CLR,0.00,VWS V14.01,2013-06-07 07:18:00,
2013-06-07 03:23:00,53.9,49.1,29.87,ENE,69,0.0,0.0,84,0.00,,CLR,0.00,VWS V14.01,2013-06-07 07:23:00,
2013-06-07 03:28:00,53.9,49.1,29.87,ENE,68,0.0,0.0,84,0.00,,CLR,0.00,VWS V14.01,2013-06-07 07:28:00,
2013-06-07 03:33:00,53.9,49.5,29.86,ENE,69,0.0,1.2,85,0.00,,CLR,0.00,VWS V14.01,2013-06-07 07:33:00,
2013-06-07 03:38:00,53.9,49.5,29.86,ENE,68,0.0,0.0,85,0.00,,CLR,0.00,VWS V14.01,2013-06-07 07:38:00,
2013-06-07 03:43:00,53.8,49.3,29.86,ENE,68,0.0,0.0,85,0.00,,CLR,0.00,VWS V14.01,2013-06-07 07:43:00,
2013-06-07 03:48:00,53.8,49.3,29.86,ENE,68,0.0,0.0,85,0.00,,CLR,0.00,VWS V14.01,2013-06-07 07:48:00,
2013-06-07 03:53:00,53.6,49.2,29.86,ENE,68,0.0,0.0,85,0.00,,CLR,0.00,VWS V14.01,2013-06-07 07:53:00,
2013-06-07 03:58:00,53.5,49.1,29.86,ENE,68,0.0,0.0,85,0.00,,CLR,0.00,VWS V14.01,2013-06-07 07:58:00,
2013-06-07 04:03:00,53.5,49.1,29.86,ENE,69,0.0,1.2,85,0.00,,CLR,0.00,VWS V14.01,2013-06-07 08:03:00,
2013-06-07 04:08:00,53.3,49.2,29.86,ENE,68,0.0,0.0,86,0.00,,CLR,0.00,VWS V14.01,2013-06-07 08:08:00,
2013-06-07 04:13:00,53.2,49.1,29.87,ENE,69,0.0,0.0,86,0.00,,CLR,0.00,VWS V14.01,2013-06-07 08:13:00,
2013-06-07 04:18:00,53.2,49.1,29.86,ENE,68,0.0,0.0,86,0.00,,CLR,0.00,VWS V14.01,2013-06-07 08:18:00,
2013-06-07 04:23:00,53.1,49.0,29.86,ENE,68,0.0,0.0,86,0.00,,CLR,0.00,VWS V14.01,2013-06-07 08:23:00,
2013-06-07 04:28:00,53.1,49.0,29.86,ENE,68,0.0,0.0,86,0.00,,CLR,0.00,VWS V14.01,2013-06-07 08:28:00,
2013-06-07 04:33:00,52.9,48.8,29.87,ENE,68,0.0,0.0,86,0.00,,CLR,0.00,VWS V14.01,2013-06-07 08:33:00,
2013-06-07 04:38:00,52.8,48.7,29.87,ENE,68,0.0,0.0,86,0.00,,CLR,0.00,VWS V14.01,2013-06-07 08:38:00,
2013-06-07 04:43:00,52.8,48.7,29.87,ENE,68,0.0,0.0,86,0.00,,CLR,0.00,VWS V14.01,2013-06-07 08:43:00,
2013-06-07 04:48:00,52.6,48.8,29.88,ENE,68,0.0,0.0,87,0.00,,CLR,0.00,VWS V14.01,2013-06-07 08:48:00,
2013-06-07 04:53:00,52.5,48.7,29.87,ENE,68,0.0,0.0,87,0.00,,CLR,0.00,VWS V14.01,2013-06-07 08:53:00,
2013-06-07 04:58:00,52.5,48.7,29.88,ENE,68,0.0,0.0,87,0.00,,CLR,0.00,VWS V14.01,2013-06-07 08:58:00,
2013-06-07 05:03:00,52.3,48.5,29.88,ENE,68,0.0,0.0,87,0.00,,CLR,0.00,VWS V14.01,2013-06-07 09:03:00,
2013-06-07 05:08:00,52.2,48.4,29.88,ENE,68,0.0,0.0,87,0.00,,CLR,0.00,VWS V14.01,2013-06-07 09:08:00,
2013-06-07 05:13:00,52.0,48.2,29.88,ENE,68,0.0,0.0,87,0.00,,CLR,0.00,VWS V14.01,2013-06-07 09:13:00,
2013-06-07 05:18:00,51.9,48.1,29.88,ENE,68,0.0,0.0,87,0.00,,CLR,0.00,VWS V14.01,2013-06-07 09:18:00,
2013-06-07 05:23:00,51.7,47.9,29.88,ENE,69,0.0,0.0,87,0.00,,CLR,0.00,VWS V14.01,2013-06-07 09:23:00,
2013-06-07 05:29:00,51.6,47.8,29.88,ENE,68,0.0,0.0,87,0.00,,CLR,0.00,VWS V14.01,2013-06-07 09:29:00,
2013-06-07 05:34:00,51.6,47.8,29.88,ENE,68,0.0,0.0,87,0.00,,CLR,0.00,VWS V14.01,2013-06-07 09:34:00,
2013-06-07 05:39:00,51.4,47.6,29.88,ENE,68,0.0,0.0,87,0.00,,CLR,0.00,VWS V14.01,2013-06-07 09:39:00,
2013-06-07 05:44:00,51.3,47.5,29.88,ENE,68,0.0,0.0,87,0.00,,CLR,0.00,VWS V14.01,2013-06-07 09:44:00,
2013-06-07 05:49:00,51.1,47.3,29.88,ENE,68,0.0,0.0,87,0.00,,CLR,0.00,VWS V14.01,2013-06-07 09:49:00,
2013-06-07 05:54:00,51.1,47.3,29.88,ENE,68,0.0,0.0,87,0.00,,OVC120,0.00,VWS V14.01,2013-06-07 09:54:00,
2013-06-07 05:59:00,51.0,47.2,29.88,ENE,68,0.0,0.0,87,0.00,,OVC120,0.00,VWS V14.01,2013-06-07 09:59:00,
2013-06-07 06:04:00,50.8,47.3,29.88,ENE,68,0.0,0.0,88,0.00,,OVC120,0.00,VWS V14.01,2013-06-07 10:04:00,
2013-06-07 06:09:00,50.7,47.2,29.88,ENE,68,0.0,0.0,88,0.00,,OVC120,0.00,VWS V14.01,2013-06-07 10:09:00,
2013-06-07 06:14:00,50.7,47.2,29.88,ENE,68,0.0,0.0,88,0.00,,OVC120,0.00,VWS V14.01,2013-06-07 10:14:00,
2013-06-07 06:19:00,50.7,47.2,29.88,ENE,68,0.0,0.0,88,0.00,,OVC120,0.00,VWS V14.01,2013-06-07 10:19:00,
2013-06-07 06:24:00,50.8,47.3,29.88,ENE,68,0.0,0.0,88,0.00,,OVC120,0.00,VWS V14.01,2013-06-07 10:24:00,
2013-06-07 06:29:00,50.8,47.3,29.88,ENE,69,0.0,0.0,88,0.00,,OVC120,0.00,VWS V14.01,2013-06-07 10:29:00,
2013-06-07 06:34:00,51.0,47.8,29.88,ENE,68,0.0,0.0,89,0.00,,OVC120,0.00,VWS V14.01,2013-06-07 10:34:00,
2013-06-07 06:39:00,51.1,47.9,29.89,ENE,68,0.0,0.0,89,0.00,,OVC120,0.00,VWS V14.01,2013-06-07 10:39:00,
2013-06-07 06:44:00,51.1,47.9,29.89,ENE,68,0.0,0.0,89,0.00,,OVC120,0.00,VWS V14.01,2013-06-07 10:44:00,
2013-06-07 06:49:00,51.1,47.9,29.89,ENE,68,0.0,0.0,89,0.00,,OVC120,0.00,VWS V14.01,2013-06-07 10:49:00,
2013-06-07 06:54:00,51.3,48.1,29.89,ENE,68,0.0,0.0,89,0.00,,BKN120,0.00,VWS V14.01,2013-06-07 10:54:00,
2013-06-07 06:59:00,51.3,48.4,29.89,North,0,0.0,0.0,90,0.00,,BKN120,0.00,VWS V14.01,2013-06-07 10:59:00,
2013-06-07 07:04:00,51.6,48.7,29.89,ENE,68,0.0,0.0,90,0.00,,BKN120,0.00,VWS V14.01,2013-06-07 11:04:00,
2013-06-07 07:09:00,51.9,49.0,29.89,ENE,69,0.0,0.0,90,0.00,,BKN120,0.00,VWS V14.01,2013-06-07 11:09:00,
2013-06-07 07:14:00,52.2,49.6,29.89,ENE,69,0.0,0.0,91,0.00,,BKN120,0.00,VWS V14.01,2013-06-07 11:14:00,
2013-06-07 07:19:00,52.3,49.7,29.89,ENE,68,1.2,1.2,91,0.00,,BKN120,0.00,VWS V14.01,2013-06-07 11:19:00,
2013-06-07 07:24:00,52.6,50.0,29.89,ENE,68,0.0,0.0,91,0.00,,BKN120,0.00,VWS V14.01,2013-06-07 11:24:00,
2013-06-07 07:29:00,52.9,50.3,29.89,ENE,68,0.0,0.0,91,0.00,,BKN120,0.00,VWS V14.01,2013-06-07 11:29:00,
2013-06-07 07:34:00,53.1,50.5,29.89,ENE,69,0.0,0.0,91,0.00,,BKN120,0.00,VWS V14.01,2013-06-07 11:34:00,
2013-06-07 07:39:00,53.3,51.0,29.89,ENE,78,1.2,1.2,92,0.00,,BKN120,0.00,VWS V14.01,2013-06-07 11:39:00,
2013-06-07 07:44:00,53.5,51.2,29.89,East,95,2.4,4.7,92,0.00,,BKN120,0.00,VWS V14.01,2013-06-07 11:44:00,
2013-06-07 07:49:00,53.8,51.5,29.89,East,85,0.0,1.2,92,0.00,,BKN120,0.00,VWS V14.01,2013-06-07 11:49:00,
2013-06-07 07:54:00,54.1,51.8,29.89,East,91,0.0,5.9,92,0.00,,OVC120,0.00,VWS V14.01,2013-06-07 11:54:00,
2013-06-07 07:59:00,54.4,52.1,29.89,East,93,1.2,5.9,92,0.00,,OVC120,0.00,VWS V14.01,2013-06-07 11:59:00,
2013-06-07 08:04:00,54.7,52.1,29.89,East,90,4.7,4.7,91,0.00,,OVC120,0.00,VWS V14.01,2013-06-07 12:04:00,
2013-06-07 08:09:00,55.1,52.5,29.89,ENE,74,3.5,5.9,91,0.00,,OVC120,0.00,VWS V14.01,2013-06-07 12:09:00,
2013-06-07 08:14:00,55.4,52.8,29.89,ENE,75,0.0,1.2,91,0.00,,OVC120,0.00,VWS V14.01,2013-06-07 12:14:00,
2013-06-07 08:19:00,55.9,53.0,29.89,East,98,0.0,2.4,90,0.00,,OVC120,0.00,VWS V14.01,2013-06-07 12:19:00,
2013-06-07 08:24:00,56.2,53.0,29.89,East,91,2.4,7.1,89,0.00,,OVC120,0.00,VWS V14.01,2013-06-07 12:24:00,
2013-06-07 08:29:00,56.5,52.6,29.89,ESE,113,5.9,7.1,87,0.00,,OVC120,0.00,VWS V14.01,2013-06-07 12:29:00,
2013-06-07 08:34:00,56.9,52.7,29.89,East,99,0.0,1.2,86,0.00,,OVC120,0.00,VWS V14.01,2013-06-07 12:34:00,
2013-06-07 08:39:00,57.3,52.8,29.90,ENE,57,0.0,2.4,85,0.00,,OVC120,0.00,VWS V14.01,2013-06-07 12:39:00,
2013-06-07 08:44:00,57.8,53.0,29.90,East,98,1.2,1.2,84,0.00,,OVC120,0.00,VWS V14.01,2013-06-07 12:44:00,
2013-06-07 08:49:00,58.6,53.4,29.90,East,81,3.5,4.7,83,0.00,,OVC120,0.00,VWS V14.01,2013-06-07 12:49:00,
2013-06-07 08:55:00,59.2,53.3,29.90,East,82,0.0,3.5,81,0.00,,OVC120,0.00,VWS V14.01,2013-06-07 12:55:00,
2013-06-07 09:00:00,59.6,53.0,29.90,East,80,1.2,2.4,79,0.00,,OVC120,0.00,VWS V14.01,2013-06-07 13:00:00,
2013-06-07 09:04:00,60.4,52.0,29.90,SE,128,7.1,7.1,74,0.00,,OVC120,0.00,VWS V14.01,2013-06-07 13:04:00,
2013-06-07 09:10:00,60.7,51.5,29.90,East,90,1.2,1.2,72,0.00,,OVC120,0.00,VWS V14.01,2013-06-07 13:10:00,
2013-06-07 09:15:00,61.2,52.0,29.90,NE,42,1.2,2.4,72,0.00,,OVC120,0.00,VWS V14.01,2013-06-07 13:15:00,
2013-06-07 09:20:00,61.3,51.7,29.90,NNE,32,0.0,2.4,71,0.00,,OVC120,0.00,VWS V14.01,2013-06-07 13:20:00,
2013-06-07 09:25:00,61.3,51.7,29.90,ESE,110,0.0,2.4,71,0.00,,OVC120,0.00,VWS V14.01,2013-06-07 13:25:00,
2013-06-07 09:30:00,61.5,51.9,29.90,NNE,32,3.5,3.5,71,0.00,,OVC120,0.00,VWS V14.01,2013-06-07 13:30:00,
2013-06-07 09:35:00,61.5,51.9,29.90,NNE,31,1.2,3.5,71,0.00,,OVC120,0.00,VWS V14.01,2013-06-07 13:35:00,
2013-06-07 09:40:00,61.6,52.0,29.90,NE,38,3.5,3.5,71,0.00,,OVC120,0.00,VWS V14.01,2013-06-07 13:40:00,
2013-06-07 09:45:00,62.7,53.1,29.90,NNE,29,0.0,0.0,71,0.00,,OVC120,0.00,VWS V14.01,2013-06-07 13:45:00,
2013-06-07 09:50:00,63.7,52.4,29.90,NE,36,1.2,1.2,67,0.00,,BKN110,0.00,VWS V14.01,2013-06-07 13:50:00,
2013-06-07 09:55:00,64.0,52.3,29.90,East,87,4.7,4.7,66,0.00,,BKN110,0.00,VWS V14.01,2013-06-07 13:55:00,
2013-06-07 10:00:00,64.2,53.3,29.90,ESE,119,0.0,4.7,68,0.00,,BKN110,0.00,VWS V14.01,2013-06-07 14:00:00,
2013-06-07 10:05:00,64.2,52.9,29.90,NE,53,1.2,5.9,67,0.00,,BKN110,0.00,VWS V14.01,2013-06-07 14:05:00,
2013-06-07 10:10:00,64.5,52.8,29.90,North,351,3.5,3.5,66,0.00,,BKN110,0.00,VWS V14.01,2013-06-07 14:10:00,
2013-06-07 10:15:00,65.0,53.7,29.90,East,97,1.2,7.1,67,0.00,,BKN110,0.00,VWS V14.01,2013-06-07 14:15:00,
2013-06-07 10:20:00,65.8,53.6,29.90,ENE,75,4.7,8.3,65,0.00,,BKN110,0.00,VWS V14.01,2013-06-07 14:20:00,
2013-06-07 10:25:00,66.0,53.3,29.90,NNW,346,2.4,5.9,64,0.00,,BKN110,0.00,VWS V14.01,2013-06-07 14:25:00,
2013-06-07 10:30:00,66.3,53.6,29.90,NNE,17,2.4,3.5,64,0.00,,BKN110,0.00,VWS V14.01,2013-06-07 14:30:00,
2013-06-07 10:35:00,66.8,53.7,29.90,North,5,5.9,8.3,63,0.00,,BKN110,0.00,VWS V14.01,2013-06-07 14:35:00,
2013-06-07 10:40:00,66.8,54.1,29.90,NNW,346,4.7,8.3,64,0.00,,BKN110,0.00,VWS V14.01,2013-06-07 14:40:00,
2013-06-07 10:45:00,67.3,54.1,29.89,NNE,32,1.2,1.2,63,0.00,,BKN110,0.00,VWS V14.01,2013-06-07 14:45:00,
2013-06-07 10:50:00,67.6,54.0,29.89,North,350,7.1,8.3,62,0.00,,SCT024,0.00,VWS V14.01,2013-06-07 14:50:00,
2013-06-07 10:55:00,67.8,54.2,29.90,North,350,5.9,5.9,62,0.00,,SCT024,0.00,VWS V14.01,2013-06-07 14:55:00,
2013-06-07 11:00:00,67.3,53.7,29.89,NNW,329,4.7,5.9,62,0.00,,SCT024,0.00,VWS V14.01,2013-06-07 15:00:00,
2013-06-07 11:05:00,67.3,53.7,29.90,ENE,62,2.4,5.9,62,0.00,,SCT024,0.00,VWS V14.01,2013-06-07 15:05:00,
2013-06-07 11:10:00,67.3,53.7,29.89,NNW,346,3.5,7.1,62,0.00,,SCT024,0.00,VWS V14.01,2013-06-07 15:10:00,
2013-06-07 11:15:00,67.4,53.8,29.89,NE,44,3.5,5.9,62,0.00,,SCT024,0.00,VWS V14.01,2013-06-07 15:15:00,
2013-06-07 11:20:00,67.6,53.0,29.89,NNE,30,4.7,5.9,60,0.00,,SCT024,0.00,VWS V14.01,2013-06-07 15:20:00,
2013-06-07 11:25:00,67.9,54.2,29.89,NNE,28,0.0,2.4,62,0.00,,SCT024,0.00,VWS V14.01,2013-06-07 15:25:00,
2013-06-07 11:30:00,67.9,53.8,29.89,NNE,23,2.4,5.9,61,0.00,,SCT024,0.00,VWS V14.01,2013-06-07 15:30:00,
2013-06-07 11:35:00,68.6,54.5,29.89,North,9,4.7,4.7,61,0.00,,SCT024,0.00,VWS V14.01,2013-06-07 15:35:00,
2013-06-07 11:40:00,68.8,53.2,29.89,NNW,347,4.7,5.9,58,0.00,,SCT024,0.00,VWS V14.01,2013-06-07 15:40:00,
2013-06-07 11:45:00,68.8,53.2,29.89,North,5,2.4,3.5,58,0.00,,SCT024,0.00,VWS V14.01,2013-06-07 15:45:00,
2013-06-07 11:50:00,68.4,53.3,29.89,North,360,8.3,8.3,59,0.00,,FEW024,0.00,VWS V14.01,2013-06-07 15:50:00,
2013-06-07 11:55:00,68.8,53.2,29.89,NNE,13,4.7,11.8,58,0.00,,FEW024,0.00,VWS V14.01,2013-06-07 15:55:00,
2013-06-07 12:00:00,68.9,52.8,29.89,NNE,16,2.4,11.8,57,0.00,,FEW024,0.00,VWS V14.01,2013-06-07 16:00:00,
2013-06-07 12:05:00,68.9,53.3,29.89,NNW,340,8.3,15.3,58,0.00,,FEW024,0.00,VWS V14.01,2013-06-07 16:05:00,
2013-06-07 12:10:00,69.4,53.3,29.89,North,10,7.1,7.1,57,0.00,,FEW024,0.00,VWS V14.01,2013-06-07 16:10:00,
2013-06-07 12:15:00,69.8,53.7,29.89,NNE,25,5.9,9.4,57,0.00,,FEW024,0.00,VWS V14.01,2013-06-07 16:15:00,
2013-06-07 12:20:00,69.9,53.3,29.89,North,360,7.1,10.6,56,0.00,,FEW024,0.00,VWS V14.01,2013-06-07 16:20:00,
2013-06-07 12:25:00,69.9,53.8,29.89,North,5,3.5,3.5,57,0.00,,FEW024,0.00,VWS V14.01,2013-06-07 16:25:00,
2013-06-07 12:30:00,70.1,53.0,29.89,North,360,5.9,9.4,55,0.00,,FEW024,0.00,VWS V14.01,2013-06-07 16:30:00,
2013-06-07 12:35:00,69.9,53.8,29.89,NNW,330,5.9,5.9,57,0.00,,FEW024,0.00,VWS V14.01,2013-06-07 16:35:00,
2013-06-07 12:40:00,69.8,53.2,29.89,North,355,8.3,8.3,56,0.00,,FEW024,0.00,VWS V14.01,2013-06-07 16:40:00,
2013-06-07 12:45:00,70.1,53.5,29.89,North,355,5.9,5.9,56,0.00,,FEW024,0.00,VWS V14.01,2013-06-07 16:45:00,
2013-06-07 12:50:00,70.3,53.7,29.89,NNE,31,4.7,4.7,56,0.00,,SCT030,0.00,VWS V14.01,2013-06-07 16:50:00,
2013-06-07 12:55:00,70.6,53.4,29.89,NE,36,3.5,7.1,55,0.00,,SCT030,0.00,VWS V14.01,2013-06-07 16:55:00,
2013-06-07 13:00:00,70.4,53.8,29.89,NNW,329,0.0,3.5,56,0.00,,SCT030,0.00,VWS V14.01,2013-06-07 17:00:00,
2013-06-07 13:05:00,70.9,52.7,29.89,ENE,71,1.2,3.5,53,0.00,,SCT030,0.00,VWS V14.01,2013-06-07 17:05:00,
2013-06-07 13:10:00,71.5,53.8,29.89,NNE,27,2.4,3.5,54,0.00,,SCT030,0.00,VWS V14.01,2013-06-07 17:10:00,
2013-06-07 13:15:00,72.0,53.2,29.88,NNW,348,8.3,13.0,52,0.00,,SCT030,0.00,VWS V14.01,2013-06-07 17:15:00,
2013-06-07 13:20:00,72.0,53.2,29.88,North,9,4.7,7.1,52,0.00,,SCT030,0.00,VWS V14.01,2013-06-07 17:20:00,
2013-06-07 13:25:00,72.3,54.0,29.88,NNE,24,7.1,11.8,53,0.00,,SCT030,0.00,VWS V14.01,2013-06-07 17:25:00,
2013-06-07 13:30:00,72.0,54.2,29.88,NNE,26,9.4,9.4,54,0.00,,SCT030,0.00,VWS V14.01,2013-06-07 17:30:00,
2013-06-07 13:35:00,72.0,53.7,29.88,North,5,5.9,7.1,53,0.00,,SCT030,0.00,VWS V14.01,2013-06-07 17:35:00,
2013-06-07 13:40:00,72.7,53.3,29.88,North,360,5.9,13.0,50,0.00,,SCT030,0.00,VWS V14.01,2013-06-07 17:40:00,
2013-06-07 13:45:00,72.7,52.2,29.88,NNW,348,10.6,11.8,48,0.00,,SCT030,0.00,VWS V14.01,2013-06-07 17:45:00,
2013-06-07 13:50:00,72.3,52.9,29.88,NE,52,1.2,5.9,50,0.00,,FEW032,0.00,VWS V14.01,2013-06-07 17:50:00,
2013-06-07 13:55:00,72.5,53.1,29.87,NNE,29,3.5,5.9,50,0.00,,FEW032,0.00,VWS V14.01,2013-06-07 17:55:00,
2013-06-07 14:01:00,73.2,54.3,29.88,North,5,8.3,11.8,52,0.00,,FEW032,0.00,VWS V14.01,2013-06-07 18:01:00,
2013-06-07 14:06:00,73.0,52.4,29.87,ENE,76,3.5,3.5,48,0.00,,FEW032,0.00,VWS V14.01,2013-06-07 18:06:00,
2013-06-07 14:11:00,72.0,53.2,29.87,NE,48,3.5,3.5,52,0.00,,FEW032,0.00,VWS V14.01,2013-06-07 18:11:00,
2013-06-07 14:16:00,72.5,53.1,29.87,North,5,7.1,7.1,50,0.00,,FEW032,0.00,VWS V14.01,2013-06-07 18:16:00,
2013-06-07 14:21:00,72.8,53.4,29.87,East,83,2.4,3.5,50,0.00,,FEW032,0.00,VWS V14.01,2013-06-07 18:21:00,
2013-06-07 14:26:00,73.0,52.4,29.87,NE,52,4.7,4.7,48,0.00,,FEW032,0.00,VWS V14.01,2013-06-07 18:26:00,
2013-06-07 14:32:00,72.3,51.2,29.87,East,98,5.9,5.9,47,0.00,,FEW032,0.00,VWS V14.01,2013-06-07 18:32:00,
2013-06-07 14:37:00,72.3,53.5,29.87,North,11,7.1,8.3,52,0.00,,FEW032,0.00,VWS V14.01,2013-06-07 18:37:00,
2013-06-07 14:42:00,73.2,53.7,29.87,NNW,344,4.7,5.9,50,0.00,,FEW032,0.00,VWS V14.01,2013-06-07 18:42:00,
2013-06-07 14:47:00,73.3,52.2,29.87,North,355,7.1,11.8,47,0.00,,FEW032,0.00,VWS V14.01,2013-06-07 18:47:00,
2013-06-07 14:52:00,73.9,52.1,29.87,North,360,7.1,8.3,46,0.00,,SCT038,0.00,VWS V14.01,2013-06-07 18:52:00,
2013-06-07 14:57:00,73.7,51.3,29.87,NNE,20,7.1,9.4,45,0.00,,SCT038,0.00,VWS V14.01,2013-06-07 18:57:00,
2013-06-07 15:03:00,73.3,51.6,29.86,NNE,20,8.3,8.3,46,0.00,,SCT038,0.00,VWS V14.01,2013-06-07 19:03:00,
2013-06-07 15:08:00,73.5,52.9,29.87,NNW,346,3.5,3.5,48,0.00,,SCT038,0.00,VWS V14.01,2013-06-07 19:08:00,
2013-06-07 15:13:00,73.9,52.1,29.87,ENE,68,3.5,8.3,46,0.00,,SCT038,0.00,VWS V14.01,2013-06-07 19:13:00,
2013-06-07 15:18:00,74.0,53.4,29.87,NE,46,0.0,3.5,48,0.00,,SCT038,0.00,VWS V14.01,2013-06-07 19:18:00,
2013-06-07 15:23:00,74.0,53.4,29.87,NNW,340,4.7,7.1,48,0.00,,SCT038,0.00,VWS V14.01,2013-06-07 19:23:00,
2013-06-07 15:28:00,74.2,51.2,29.87,NE,34,5.9,7.1,44,0.00,,SCT038,0.00,VWS V14.01,2013-06-07 19:28:00,
2013-06-07 15:33:00,74.0,52.2,29.87,East,82,4.7,4.7,46,0.00,,SCT038,0.00,VWS V14.01,2013-06-07 19:33:00,
2013-06-07 15:38:00,74.4,52.0,29.87,North,355,8.3,8.3,45,0.00,,SCT038,0.00,VWS V14.01,2013-06-07 19:38:00,
2013-06-07 15:43:00,74.9,52.4,29.87,North,360,10.6,11.8,45,0.00,,SCT038,0.00,VWS V14.01,2013-06-07 19:43:00,
2013-06-07 15:48:00,74.7,52.2,29.87,NW,324,5.9,7.1,45,0.00,,SCT038,0.00,VWS V14.01,2013-06-07 19:48:00,
2013-06-07 15:53:00,74.9,52.4,29.86,North,9,5.9,5.9,45,0.00,,SCT044,0.00,VWS V14.01,2013-06-07 19:53:00,
2013-06-07 15:58:00,76.0,52.8,29.86,North,355,7.1,8.3,44,0.00,,SCT044,0.00,VWS V14.01,2013-06-07 19:58:00,
2013-06-07 16:03:00,75.4,52.9,29.86,NNE,23,7.1,9.4,45,0.00,,SCT044,0.00,VWS V14.01,2013-06-07 20:03:00,
2013-06-07 16:08:00,74.9,52.4,29.86,NNE,22,5.9,7.1,45,0.00,,SCT044,0.00,VWS V14.01,2013-06-07 20:08:00,
2013-06-07 16:13:00,74.2,53.5,29.86,NE,52,2.4,3.5,48,0.00,,SCT044,0.00,VWS V14.01,2013-06-07 20:13:00,
2013-06-07 16:18:00,74.9,51.2,29.86,North,355,5.9,9.4,43,0.00,,SCT044,0.00,VWS V14.01,2013-06-07 20:18:00,
2013-06-07 16:23:00,74.9,52.4,29.86,North,355,0.0,1.2,45,0.00,,SCT044,0.00,VWS V14.01,2013-06-07 20:23:00,
2013-06-07 16:29:00,74.9,51.2,29.86,North,360,7.1,11.8,43,0.00,,SCT044,0.00,VWS V14.01,2013-06-07 20:29:00,
2013-06-07 16:34:00,74.7,50.4,29.86,NNW,339,7.1,8.3,42,0.00,,SCT044,0.00,VWS V14.01,2013-06-07 20:34:00,
2013-06-07 16:39:00,74.0,50.4,29.86,North,360,5.9,7.1,43,0.00,,SCT044,0.00,VWS V14.01,2013-06-07 20:39:00,
2013-06-07 16:44:00,74.0,50.4,29.86,WNW,295,3.5,8.3,43,0.00,,SCT044,0.00,VWS V14.01,2013-06-07 20:44:00,
2013-06-07 16:49:00,74.2,51.2,29.86,NNW,341,4.7,4.7,44,0.00,,SCT044,0.00,VWS V14.01,2013-06-07 20:49:00,
2013-06-07 16:54:00,73.5,51.7,29.86,North,360,5.9,7.1,46,0.00,,CLR,0.00,VWS V14.01,2013-06-07 20:54:00,
2013-06-07 16:59:00,72.8,50.5,29.86,NW,322,3.5,7.1,45,0.00,,CLR,0.00,VWS V14.01,2013-06-07 20:59:00,
2013-06-07 17:04:00,72.8,53.4,29.86,North,350,2.4,2.4,50,0.00,,CLR,0.00,VWS V14.01,2013-06-07 21:04:00,
2013-06-07 17:09:00,74.2,51.8,29.86,NNE,13,4.7,8.3,45,0.00,,CLR,0.00,VWS V14.01,2013-06-07 21:09:00,
2013-06-07 17:14:00,74.0,51.0,29.86,North,360,5.9,7.1,44,0.00,,CLR,0.00,VWS V14.01,2013-06-07 21:14:00,
2013-06-07 17:20:00,72.8,51.1,29.86,North,11,4.7,7.1,46,0.00,,CLR,0.00,VWS V14.01,2013-06-07 21:20:00,
2013-06-07 17:25:00,72.1,51.6,29.85,NW,325,1.2,3.5,48,0.00,,CLR,0.00,VWS V14.01,2013-06-07 21:25:00,
2013-06-07 17:30:00,72.3,50.7,29.85,North,351,0.0,1.2,46,0.00,,CLR,0.00,VWS V14.01,2013-06-07 21:30:00,
2013-06-07 17:35:00,72.1,52.7,29.85,ENE,65,0.0,1.2,50,0.00,,CLR,0.00,VWS V14.01,2013-06-07 21:35:00,
2013-06-07 17:40:00,71.6,51.7,29.85,NE,43,2.4,2.4,49,0.00,,CLR,0.00,VWS V14.01,2013-06-07 21:40:00,
2013-06-07 17:45:00,71.5,50.5,29.85,North,5,2.4,2.4,47,0.00,,CLR,0.00,VWS V14.01,2013-06-07 21:45:00,
2013-06-07 17:50:00,71.5,51.1,29.85,NE,44,0.0,1.2,48,0.00,,FEW048,0.00,VWS V14.01,2013-06-07 21:50:00,
2013-06-07 17:55:00,71.5,51.1,29.85,NNE,30,2.4,3.5,48,0.00,,FEW048,0.00,VWS V14.01,2013-06-07 21:55:00,
2013-06-07 18:01:00,71.3,51.4,29.86,NE,35,1.2,3.5,49,0.00,,FEW048,0.00,VWS V14.01,2013-06-07 22:01:00,
2013-06-07 18:06:00,71.1,51.3,29.86,ENE,63,2.4,3.5,49,0.00,,FEW048,0.00,VWS V14.01,2013-06-07 22:06:00,
2013-06-07 18:11:00,71.1,51.3,29.85,NNE,15,3.5,3.5,49,0.00,,FEW048,0.00,VWS V14.01,2013-06-07 22:11:00,
2013-06-07 18:16:00,71.1,51.3,29.86,NNE,26,2.4,4.7,49,0.00,,FEW048,0.00,VWS V14.01,2013-06-07 22:16:00,
2013-06-07 18:21:00,71.3,50.9,29.85,North,9,5.9,5.9,48,0.00,,FEW048,0.00,VWS V14.01,2013-06-07 22:21:00,
2013-06-07 18:26:00,71.3,51.4,29.85,NNW,337,3.5,4.7,49,0.00,,FEW048,0.00,VWS V14.01,2013-06-07 22:26:00,
2013-06-07 18:31:00,71.6,52.3,29.85,NE,55,0.0,1.2,50,0.00,,FEW048,0.00,VWS V14.01,2013-06-07 22:31:00,
2013-06-07 18:36:00,71.5,52.2,29.85,North,11,2.4,4.7,50,0.00,,FEW048,0.00,VWS V14.01,2013-06-07 22:36:00,
2013-06-07 18:41:00,71.3,52.5,29.85,NE,54,2.4,4.7,52,0.00,,FEW048,0.00,VWS V14.01,2013-06-07 22:41:00,
2013-06-07 18:47:00,71.1,52.3,29.85,NE,51,2.4,4.7,52,0.00,,FEW048,0.00,VWS V14.01,2013-06-07 22:47:00,
2013-06-07 18:52:00,70.9,52.2,29.85,SE,133,0.0,2.4,52,0.00,,SCT047,0.00,VWS V14.01,2013-06-07 22:52:00,
2013-06-07 18:57:00,70.9,52.2,29.85,East,95,4.7,4.7,52,0.00,,SCT047,0.00,VWS V14.01,2013-06-07 22:57:00,
2013-06-07 19:02:00,70.8,52.1,29.86,ENE,67,1.2,2.4,52,0.00,,SCT047,0.00,VWS V14.01,2013-06-07 23:02:00,
2013-06-07 19:07:00,70.6,51.9,29.86,ENE,71,2.4,3.5,52,0.00,,SCT047,0.00,VWS V14.01,2013-06-07 23:07:00,
2013-06-07 19:12:00,70.4,51.7,29.86,ENE,69,3.5,3.5,52,0.00,,SCT047,0.00,VWS V14.01,2013-06-07 23:12:00,
2013-06-07 19:17:00,70.3,51.6,29.86,ENE,66,1.2,1.2,52,0.00,,SCT047,0.00,VWS V14.01,2013-06-07 23:17:00,
2013-06-07 19:22:00,70.1,51.4,29.86,ENE,57,1.2,2.4,52,0.00,,SCT047,0.00,VWS V14.01,2013-06-07 23:22:00,
2013-06-07 19:27:00,69.8,51.7,29.86,ENE,65,0.0,1.2,53,0.00,,SCT047,0.00,VWS V14.01,2013-06-07 23:27:00,
2013-06-07 19:32:00,69.6,51.0,29.86,NE,45,3.5,3.5,52,0.00,,SCT047,0.00,VWS V14.01,2013-06-07 23:32:00,
2013-06-07 19:37:00,69.4,52.3,29.86,NE,46,1.2,3.5,55,0.00,,SCT047,0.00,VWS V14.01,2013-06-07 23:37:00,
2013-06-07 19:42:00,69.6,52.0,29.86,ENE,59,1.2,3.5,54,0.00,,SCT047,0.00,VWS V14.01,2013-06-07 23:42:00,
2013-06-07 19:47:00,69.8,51.7,29.86,East,94,2.4,5.9,53,0.00,,SCT047,0.00,VWS V14.01,2013-06-07 23:47:00,
2013-06-07 19:53:00,69.9,52.3,29.87,ENE,57,0.0,0.0,54,0.00,,CLR,0.00,VWS V14.01,2013-06-07 23:53:00,
2013-06-07 19:58:00,70.1,51.4,29.87,NE,48,3.5,4.7,52,0.00,,CLR,0.00,VWS V14.01,2013-06-07 23:58:00,
2013-06-07 20:03:00,70.1,51.4,29.87,East,93,2.4,5.9,52,0.00,,CLR,0.00,VWS V14.01,2013-06-08 00:03:00,
2013-06-07 20:08:00,70.1,50.9,29.87,ENE,64,0.0,7.1,50,0.00,,CLR,0.00,VWS V14.01,2013-06-08 00:08:00,
2013-06-07 20:13:00,70.1,50.9,29.87,East,85,1.2,1.2,50,0.00,,CLR,0.00,VWS V14.01,2013-06-08 00:13:00,
2013-06-07 20:18:00,69.8,50.1,29.87,NNW,348,4.7,5.9,49,0.00,,CLR,0.00,VWS V14.01,2013-06-08 00:18:00,
2013-06-07 20:23:00,69.4,49.7,29.88,NNW,345,2.4,7.1,49,0.00,,CLR,0.00,VWS V14.01,2013-06-08 00:23:00,
2013-06-07 20:28:00,68.8,49.7,29.88,NNW,340,5.9,7.1,50,0.00,,CLR,0.00,VWS V14.01,2013-06-08 00:28:00,
2013-06-07 20:33:00,68.3,49.2,29.88,NNW,336,4.7,5.9,50,0.00,,CLR,0.00,VWS V14.01,2013-06-08 00:33:00,
2013-06-07 20:38:00,67.6,49.1,29.88,NNW,344,4.7,7.1,52,0.00,,CLR,0.00,VWS V14.01,2013-06-08 00:38:00,
2013-06-07 20:43:00,67.1,48.7,29.88,NNW,335,3.5,3.5,52,0.00,,CLR,0.00,VWS V14.01,2013-06-08 00:43:00,
2013-06-07 20:48:00,66.6,48.7,29.88,NNW,335,2.4,3.5,53,0.00,,CLR,0.00,VWS V14.01,2013-06-08 00:48:00,
2013-06-07 20:54:00,66.1,48.2,29.89,NNW,336,3.5,4.7,53,0.00,,SCT055,0.00,VWS V14.01,2013-06-08 00:54:00,
2013-06-07 20:59:00,65.6,48.3,29.89,NNW,336,1.2,1.2,54,0.00,,SCT055,0.00,VWS V14.01,2013-06-08 00:59:00,
2013-06-07 21:04:00,65.3,48.5,29.89,NNW,336,0.0,0.0,55,0.00,,SCT055,0.00,VWS V14.01,2013-06-08 01:04:00,
2013-06-07 21:09:00,64.8,48.0,29.89,NNW,336,1.2,1.2,55,0.00,,SCT055,0.00,VWS V14.01,2013-06-08 01:09:00,
2013-06-07 21:15:00,64.5,48.3,29.89,NNW,336,0.0,1.2,56,0.00,,SCT055,0.00,VWS V14.01,2013-06-08 01:15:00,
2013-06-07 21:20:00,64.0,48.3,29.89,NNW,336,0.0,1.2,57,0.00,,SCT055,0.00,VWS V14.01,2013-06-08 01:20:00,
2013-06-07 21:25:00,63.7,48.5,29.89,NNW,336,0.0,0.0,58,0.00,,SCT055,0.00,VWS V14.01,2013-06-08 01:25:00,
2013-06-07 21:30:00,63.4,48.2,29.89,NNW,336,0.0,0.0,58,0.00,,SCT055,0.00,VWS V14.01,2013-06-08 01:30:00,
2013-06-07 21:35:00,63.1,47.9,29.89,NNW,336,0.0,0.0,58,0.00,,SCT055,0.00,VWS V14.01,2013-06-08 01:35:00,
2013-06-07 21:40:00,62.7,48.0,29.89,NNW,336,0.0,0.0,59,0.00,,SCT055,0.00,VWS V14.01,2013-06-08 01:40:00,
2013-06-07 21:46:00,62.3,48.1,29.90,NNW,336,0.0,0.0,60,0.00,,SCT055,0.00,VWS V14.01,2013-06-08 01:46:00,
2013-06-07 21:51:00,61.8,47.6,29.90,NNW,336,0.0,0.0,60,0.00,,FEW055,0.00,VWS V14.01,2013-06-08 01:51:00,
2013-06-07 21:56:00,61.5,47.8,29.90,NNW,336,0.0,0.0,61,0.00,,FEW055,0.00,VWS V14.01,2013-06-08 01:56:00,
2013-06-07 22:01:00,61.0,47.7,29.90,NNW,336,0.0,0.0,62,0.00,,FEW055,0.00,VWS V14.01,2013-06-08 02:01:00,
2013-06-07 22:06:00,60.5,47.7,29.90,NNW,336,0.0,0.0,63,0.00,,FEW055,0.00,VWS V14.01,2013-06-08 02:06:00,
2013-06-07 22:11:00,60.2,47.4,29.90,NNW,336,0.0,0.0,63,0.00,,FEW055,0.00,VWS V14.01,2013-06-08 02:11:00,
2013-06-07 22:16:00,59.8,47.5,29.90,NNW,336,0.0,0.0,64,0.00,,FEW055,0.00,VWS V14.01,2013-06-08 02:16:00,
2013-06-07 22:21:00,59.3,47.4,29.90,NNW,336,0.0,0.0,65,0.00,,FEW055,0.00,VWS V14.01,2013-06-08 02:21:00,
2013-06-07 22:26:00,59.0,47.5,29.90,NNW,336,0.0,0.0,66,0.00,,FEW055,0.00,VWS V14.01,2013-06-08 02:26:00,
2013-06-07 22:31:00,58.7,47.2,29.90,NNW,336,0.0,0.0,66,0.00,,FEW055,0.00,VWS V14.01,2013-06-08 02:31:00,
2013-06-07 22:36:00,58.4,47.0,29.90,NNW,336,0.0,0.0,66,0.00,,FEW055,0.00,VWS V14.01,2013-06-08 02:36:00,
2013-06-07 22:41:00,58.0,47.0,29.90,NNW,336,0.0,0.0,67,0.00,,FEW055,0.00,VWS V14.01,2013-06-08 02:41:00,
2013-06-07 22:46:00,57.6,46.6,29.90,NNW,336,0.0,0.0,67,0.00,,FEW055,0.00,VWS V14.01,2013-06-08 02:46:00,
2013-06-07 22:51:00,57.3,46.7,29.91,NNW,336,0.0,0.0,68,0.00,,CLR,0.00,VWS V14.01,2013-06-08 02:51:00,
2013-06-07 22:56:00,56.9,46.3,29.91,NNW,336,0.0,0.0,68,0.00,,CLR,0.00,VWS V14.01,2013-06-08 02:56:00,
2013-06-07 23:02:00,56.7,46.5,29.91,NNW,336,0.0,0.0,69,0.00,,CLR,0.00,VWS V14.01,2013-06-08 03:02:00,
2013-06-07 23:07:00,56.5,46.7,29.90,NNW,336,0.0,0.0,70,0.00,,CLR,0.00,VWS V14.01,2013-06-08 03:07:00,
2013-06-07 23:12:00,56.2,46.4,29.91,NNW,336,0.0,0.0,70,0.00,,CLR,0.00,VWS V14.01,2013-06-08 03:12:00,
2013-06-07 23:17:00,56.0,46.2,29.91,NNW,336,0.0,0.0,70,0.00,,CLR,0.00,VWS V14.01,2013-06-08 03:17:00,
2013-06-07 23:22:00,55.7,46.3,29.91,NNW,336,0.0,0.0,71,0.00,,CLR,0.00,VWS V14.01,2013-06-08 03:22:00,
2013-06-07 23:27:00,55.6,46.6,29.91,NNW,336,0.0,0.0,72,0.00,,CLR,0.00,VWS V14.01,2013-06-08 03:27:00,
2013-06-07 23:33:00,55.4,46.4,29.91,NNW,336,0.0,0.0,72,0.00,,CLR,0.00,VWS V14.01,2013-06-08 03:33:00,
2013-06-07 23:38:00,55.1,46.5,29.91,NNW,336,0.0,0.0,73,0.00,,CLR,0.00,VWS V14.01,2013-06-08 03:38:00,
2013-06-07 23:43:00,55.0,46.4,29.91,NNW,336,0.0,0.0,73,0.00,,CLR,0.00,VWS V14.01,2013-06-08 03:43:00,
2013-06-07 23:48:00,54.7,46.1,29.91,NNW,336,0.0,0.0,73,0.00,,CLR,0.00,VWS V14.01,2013-06-08 03:48:00,
2013-06-07 23:53:00,54.5,46.3,29.91,NNW,336,0.0,0.0,74,0.00,,CLR,0.00,VWS V14.01,2013-06-08 03:53:00,
2013-06-07 23:58:00,54.2,46.0,29.91,NNW,336,0.0,0.0,74,0.00,,CLR,0.00,VWS V14.01,2013-06-08 03:58:00,